createdAt,value
2019-05-12T00:00:31.568Z,53.35
2019-05-12T00:03:02.935Z,70.37
2019-05-12T00:05:34.335Z,92.57
2019-05-12T00:08:08.167Z,97.95
2019-05-12T00:10:38.998Z,106.58
2019-05-12T00:13:10.250Z,110.37
2019-05-12T00:15:41.751Z,105.60
2019-05-12T00:18:13.134Z,81.90
2019-05-12T00:20:44.582Z,88.15
2019-05-12T00:23:24.928Z,64.15
2019-05-12T00:25:49.175Z,57.17
2019-05-12T00:28:21.695Z,63.48
2019-05-12T00:30:53.143Z,56.02
2019-05-12T00:33:24.648Z,54.50
2019-05-12T00:35:56.147Z,63.10
2019-05-12T00:38:29.283Z,55.83
2019-05-12T00:41:00.743Z,61.83
2019-05-12T00:43:32.115Z,67.75
2019-05-12T00:46:03.495Z,61.18
2019-05-12T00:48:34.993Z,62.58
2019-05-12T00:51:07.775Z,58.33
2019-05-12T00:53:43.186Z,68.90
2019-05-12T00:56:12.403Z,70.83
2019-05-12T00:58:43.665Z,63.17
2019-05-12T01:01:15.050Z,61.23
2019-05-12T01:03:48.326Z,72.25
2019-05-12T01:06:19.599Z,68.20
2019-05-12T01:08:50.849Z,69.05
2019-05-12T01:11:23.329Z,81.55
2019-05-12T01:13:54.804Z,103.20
2019-05-12T01:16:26.082Z,127.15
2019-05-12T01:18:58.622Z,132.72
2019-05-12T01:21:29.929Z,142.87
2019-05-12T01:24:03.485Z,152.80
2019-05-12T01:26:34.294Z,115.52
2019-05-12T01:29:05.747Z,100.97
2019-05-12T01:31:38.730Z,79.80
2019-05-12T01:34:10.014Z,70.65
2019-05-12T01:36:41.586Z,64.55
2019-05-12T01:39:12.906Z,71.33
2019-05-12T01:41:44.331Z,78.67
2019-05-12T01:44:15.673Z,96.85
2019-05-12T01:46:48.402Z,99.75
2019-05-12T01:49:20.015Z,122.70
2019-05-12T01:51:51.473Z,122.92
2019-05-12T01:54:22.756Z,130.85
2019-05-12T01:56:54.026Z,140.40
2019-05-12T01:59:25.498Z,128.55
2019-05-12T02:01:58.152Z,146.25
2019-05-12T02:04:31.430Z,167.75
2019-05-12T02:07:04.404Z,164.57
2019-05-12T02:09:38.691Z,162.62
2019-05-12T02:12:10.392Z,166.53
2019-05-12T02:14:41.765Z,147.95
2019-05-12T02:17:13.147Z,123.25
2019-05-12T02:19:44.645Z,87.53
2019-05-12T02:22:15.971Z,82.88
2019-05-12T02:24:47.928Z,58.70
2019-05-12T02:27:19.463Z,45.20
2019-05-12T02:29:51.063Z,42.45
2019-05-12T02:32:25.123Z,39.42
2019-05-12T02:34:55.423Z,39.30
2019-05-12T02:37:26.794Z,35.17
2019-05-12T02:39:58.301Z,34.33
2019-05-12T02:42:29.914Z,33.65
2019-05-12T02:45:01.271Z,31.60
2019-05-12T02:47:34.733Z,30.40
2019-05-12T02:50:09.207Z,27.37
2019-05-12T02:52:44.118Z,29.15
2019-05-12T02:55:15.046Z,32.03
2019-05-12T02:57:48.527Z,34.25
2019-05-12T03:00:19.957Z,32.93
2019-05-12T03:02:54.764Z,33.83
2019-05-12T03:05:27.560Z,32.33
2019-05-12T03:07:59.820Z,34.78
2019-05-12T03:10:31.293Z,28.55
2019-05-12T03:13:04.258Z,36.03
2019-05-12T03:15:37.430Z,29.63
2019-05-12T03:18:09.294Z,33.23
2019-05-12T03:20:40.873Z,31.30
2019-05-12T03:23:18.359Z,38.90
2019-05-12T03:25:45.833Z,37.63
2019-05-12T03:28:17.333Z,34.70
2019-05-12T03:30:49.542Z,35.85
2019-05-12T03:33:21.042Z,29.25
2019-05-12T03:35:59.855Z,28.10
2019-05-12T03:38:27.825Z,26.48
2019-05-12T03:40:58.663Z,27.48
2019-05-12T03:43:31.075Z,26.30
2019-05-12T03:46:05.210Z,28.17
2019-05-12T03:48:35.518Z,28.38
2019-05-12T03:51:06.833Z,30.70
2019-05-12T03:53:38.185Z,30.27
2019-05-12T03:56:09.645Z,33.48
2019-05-12T03:58:41.036Z,35.38
2019-05-12T04:01:15.046Z,32.73
2019-05-12T04:03:45.538Z,33.95
2019-05-12T04:06:16.849Z,33.75
2019-05-12T04:08:48.342Z,30.97
2019-05-12T04:11:19.776Z,28.98
2019-05-12T04:13:51.002Z,29.55
2019-05-12T04:16:24.696Z,32.73
2019-05-12T04:18:56.347Z,31.82
2019-05-12T04:21:27.740Z,34.50
2019-05-12T04:23:59.197Z,31.60
2019-05-12T04:26:30.480Z,33.45
2019-05-12T04:29:04.820Z,34.33
2019-05-12T04:31:36.833Z,31.10
2019-05-12T04:34:13.676Z,32.00
2019-05-12T04:36:44.934Z,31.62
2019-05-12T04:39:15.504Z,32.30
2019-05-12T04:41:46.953Z,32.93
2019-05-12T04:44:18.481Z,33.53
2019-05-12T04:46:49.784Z,33.18
2019-05-12T04:49:24.959Z,33.50
2019-05-12T04:51:55.295Z,33.65
2019-05-12T04:54:26.665Z,30.27
2019-05-12T04:56:57.989Z,30.05
2019-05-12T04:59:29.224Z,29.63
2019-05-12T05:02:00.576Z,29.20
2019-05-12T05:04:34.553Z,29.85
2019-05-12T05:07:05.010Z,30.35
2019-05-12T05:09:36.355Z,28.98
2019-05-12T05:12:07.574Z,26.75
2019-05-12T05:14:38.926Z,28.83
2019-05-12T05:17:10.318Z,33.00
2019-05-12T05:19:43.999Z,26.90
2019-05-12T05:22:14.757Z,26.95
2019-05-12T05:24:46.029Z,20.52
2019-05-12T05:27:17.500Z,24.43
2019-05-12T05:29:49.013Z,24.63
2019-05-12T05:32:20.483Z,20.57
2019-05-12T05:34:55.767Z,25.95
2019-05-12T05:37:24.764Z,25.72
2019-05-12T05:39:56.072Z,27.20
2019-05-12T05:42:32.675Z,31.85
2019-05-12T05:45:00.620Z,27.15
2019-05-12T05:47:33.626Z,26.25
2019-05-12T05:50:07.176Z,26.12
2019-05-12T05:55:14.493Z,29.80
2019-05-12T05:57:44.388Z,27.45
2019-05-12T06:00:21.220Z,26.25
2019-05-12T06:02:49.099Z,18.17
2019-05-12T06:05:26.298Z,27.35
2019-05-12T06:07:53.653Z,21.85
2019-05-12T06:10:34.726Z,24.47
2019-05-12T06:12:58.130Z,22.50
2019-05-12T06:15:37.487Z,20.77
2019-05-12T06:18:03.987Z,19.15
2019-05-12T06:20:38.065Z,11.70
2019-05-12T06:23:08.527Z,12.18
2019-05-12T06:25:50.588Z,11.12
2019-05-12T06:28:14.506Z,10.60
2019-05-12T06:30:49.505Z,10.25
2019-05-12T06:33:24.761Z,9.43
2019-05-12T06:35:54.220Z,10.98
2019-05-12T06:38:25.341Z,9.30
2019-05-12T06:40:56.637Z,13.05
2019-05-12T06:43:29.177Z,10.68
2019-05-12T06:46:03.513Z,14.35
2019-05-12T06:48:34.296Z,11.70
2019-05-12T06:51:09.286Z,11.78
2019-05-12T06:53:38.832Z,11.93
2019-05-12T06:56:17.578Z,9.15
2019-05-12T06:58:44.226Z,8.70
2019-05-12T07:01:19.342Z,10.45
2019-05-12T07:03:48.701Z,11.40
2019-05-12T07:06:20.131Z,11.28
2019-05-12T07:09:06.005Z,11.35
2019-05-12T07:11:42.561Z,9.90
2019-05-12T07:14:12.853Z,12.98
2019-05-12T07:16:38.128Z,11.75
2019-05-12T07:19:20.611Z,11.12
2019-05-12T07:24:15.342Z,10.93
2019-05-12T07:26:48.143Z,10.03
2019-05-12T07:29:19.922Z,8.95
2019-05-12T07:31:53.697Z,7.60
2019-05-12T07:36:59.850Z,8.18
2019-05-12T07:39:36.971Z,8.63
2019-05-12T07:42:06.336Z,8.75
2019-05-12T07:44:41.157Z,8.90
2019-05-12T07:47:13.759Z,8.93
2019-05-12T07:49:45.308Z,9.53
2019-05-12T07:52:16.744Z,10.63
2019-05-12T07:54:48.048Z,9.25
2019-05-12T07:57:19.354Z,8.23
2019-05-12T07:59:51.165Z,9.18
2019-05-12T08:02:31.435Z,9.15
2019-05-12T08:04:55.553Z,9.40
2019-05-12T08:07:29.897Z,8.95
2019-05-12T08:09:59.928Z,9.90
2019-05-12T08:12:31.244Z,10.75
2019-05-12T08:15:05.409Z,8.83
2019-05-12T08:17:35.682Z,9.70
2019-05-12T08:20:07.523Z,10.85
2019-05-12T08:22:40.864Z,9.20
2019-05-12T08:27:49.036Z,9.40
2019-05-12T08:30:19.039Z,10.10
2019-05-12T08:32:54.698Z,9.45
2019-05-12T08:35:29.350Z,13.60
2019-05-12T08:37:56.575Z,10.85
2019-05-12T08:40:27.925Z,9.03
2019-05-12T08:43:04.759Z,19.07
2019-05-12T08:45:37.053Z,18.27
2019-05-12T08:48:10.224Z,9.50
2019-05-12T08:50:42.598Z,9.58
2019-05-12T08:53:20.286Z,9.45
2019-05-12T08:55:45.626Z,9.50
2019-05-12T08:58:30.469Z,11.73
2019-05-12T09:00:50.635Z,8.55
2019-05-12T09:03:27.185Z,8.55
2019-05-12T09:08:26.267Z,8.45
2019-05-12T09:10:57.710Z,8.78
2019-05-12T09:13:28.928Z,7.25
2019-05-12T09:16:00.220Z,8.20
2019-05-12T09:18:35.127Z,7.60
2019-05-12T09:21:05.073Z,7.55
2019-05-12T09:23:41.058Z,7.20
2019-05-12T09:26:09.392Z,7.12
2019-05-12T09:28:47.377Z,6.55
2019-05-12T09:31:14.202Z,10.53
2019-05-12T09:33:45.795Z,10.20
2019-05-12T09:36:19.696Z,6.60
2019-05-12T09:38:55.923Z,7.22
2019-05-12T09:41:24.039Z,6.33
2019-05-12T09:43:55.387Z,7.15
2019-05-12T09:46:28.379Z,7.08
2019-05-12T09:48:59.545Z,7.03
2019-05-12T09:51:32.931Z,7.40
2019-05-12T09:54:05.225Z,7.37
2019-05-12T09:56:36.530Z,6.00
2019-05-12T09:59:17.893Z,6.60
2019-05-12T10:01:43.870Z,8.43
2019-05-12T10:04:16.310Z,7.83
2019-05-12T10:09:19.798Z,5.67
2019-05-12T10:11:51.865Z,5.85
2019-05-12T10:14:23.662Z,9.03
2019-05-12T10:16:54.953Z,6.05
2019-05-12T10:19:26.169Z,5.83
2019-05-12T10:21:59.461Z,7.35
2019-05-12T10:27:03.794Z,3.87
2019-05-12T10:29:35.145Z,6.25
2019-05-12T10:32:06.458Z,7.78
2019-05-12T10:34:40.231Z,5.75
2019-05-12T10:39:41.579Z,11.43
2019-05-12T10:42:13.743Z,10.53
2019-05-12T10:44:45.199Z,6.05
2019-05-12T10:47:16.483Z,7.62
2019-05-12T10:49:47.970Z,7.90
2019-05-12T10:52:19.295Z,6.42
2019-05-12T10:54:50.797Z,10.15
2019-05-12T10:57:22.304Z,8.33
2019-05-12T10:59:53.790Z,7.20
2019-05-12T11:02:26.442Z,13.00
2019-05-12T11:04:58.325Z,7.97
2019-05-12T11:07:30.033Z,7.55
2019-05-12T11:10:05.205Z,6.05
2019-05-12T11:15:08.494Z,6.20
2019-05-12T11:17:49.827Z,6.40
2019-05-12T11:20:21.211Z,8.35
2019-05-12T11:22:54.254Z,8.60
2019-05-12T11:25:25.526Z,9.98
2019-05-12T11:27:56.817Z,13.18
2019-05-12T11:30:28.163Z,14.00
2019-05-12T11:32:59.916Z,13.35
2019-05-12T11:35:31.307Z,10.95
2019-05-12T11:38:04.493Z,15.38
2019-05-12T11:43:06.206Z,34.35
2019-05-12T11:45:38.290Z,66.45
2019-05-12T11:48:10.452Z,69.17
2019-05-12T11:50:47.803Z,43.83
2019-05-12T11:53:14.909Z,27.62
2019-05-12T11:55:46.463Z,40.17
2019-05-12T11:58:18.008Z,40.38
2019-05-12T12:00:53.212Z,30.62
2019-05-12T12:03:24.252Z,46.68
2019-05-12T12:05:55.697Z,14.95
2019-05-12T12:08:35.215Z,42.55
2019-05-12T12:11:00.228Z,36.95
2019-05-12T12:13:33.566Z,79.50
2019-05-12T12:18:38.167Z,112.77
2019-05-12T12:21:10.044Z,93.33
2019-05-12T12:23:47.139Z,221.13
2019-05-12T12:26:30.047Z,75.25
2019-05-12T12:28:58.816Z,16.60
2019-05-12T12:31:35.548Z,19.37
2019-05-12T12:34:05.249Z,15.85
2019-05-12T12:36:36.701Z,8.48
2019-05-12T12:39:08.159Z,8.05
2019-05-12T12:41:45.757Z,7.78
2019-05-12T12:46:45.407Z,9.03
2019-05-12T12:49:16.847Z,9.50
2019-05-12T12:51:48.248Z,7.85
2019-05-12T12:54:25.543Z,11.55
2019-05-12T12:57:00.099Z,9.95
2019-05-12T12:59:33.277Z,12.60
2019-05-12T13:04:39.485Z,7.22
2019-05-12T13:07:09.152Z,8.10
2019-05-12T13:09:40.469Z,32.30
2019-05-12T13:12:16.006Z,17.30
2019-05-12T13:14:45.530Z,8.35
2019-05-12T13:17:17.143Z,8.65
2019-05-12T13:19:48.775Z,7.22
2019-05-12T13:22:21.607Z,8.63
2019-05-12T13:24:53.288Z,8.78
2019-05-12T13:30:01.596Z,7.55
2019-05-12T13:32:33.145Z,7.78
2019-05-12T13:35:09.666Z,8.03
2019-05-12T13:37:39.164Z,6.92
2019-05-12T13:40:10.665Z,6.55
2019-05-12T13:42:43.768Z,6.95
2019-05-12T13:47:47.602Z,6.70
2019-05-12T13:50:26.215Z,8.25
2019-05-12T13:52:54.189Z,8.73
2019-05-12T13:55:25.306Z,8.45
2019-05-12T13:57:57.879Z,14.80
2019-05-12T14:00:29.358Z,11.97
2019-05-12T14:03:07.637Z,7.58
2019-05-12T14:05:33.726Z,8.20
2019-05-12T14:08:05.095Z,7.62
2019-05-12T14:10:37.622Z,6.47
2019-05-12T14:13:09.651Z,6.12
2019-05-12T14:15:41.094Z,8.78
2019-05-12T14:18:16.377Z,8.83
2019-05-12T14:23:17.543Z,9.93
2019-05-12T14:25:48.810Z,8.68
2019-05-12T14:28:20.140Z,6.25
2019-05-12T14:30:53.890Z,7.42
2019-05-12T14:33:24.932Z,7.10
2019-05-12T14:35:56.262Z,6.47
2019-05-12T14:38:29.723Z,5.60
2019-05-12T14:43:34.165Z,4.78
2019-05-12T14:46:10.146Z,5.95
2019-05-12T14:48:40.176Z,7.17
2019-05-12T14:51:14.108Z,4.83
2019-05-12T14:53:48.016Z,6.65
2019-05-12T14:56:19.048Z,5.30
2019-05-12T14:58:55.560Z,6.72
2019-05-12T15:01:37.484Z,8.00
2019-05-12T15:03:58.054Z,6.95
2019-05-12T15:06:29.660Z,8.10
2019-05-12T15:09:03.267Z,6.70
2019-05-12T15:11:34.338Z,4.53
2019-05-12T15:14:05.528Z,5.08
2019-05-12T15:16:40.575Z,4.85
2019-05-12T15:19:09.945Z,5.22
2019-05-12T15:21:43.541Z,4.30
2019-05-12T15:24:17.606Z,5.25
2019-05-12T15:26:50.614Z,5.15
2019-05-12T15:29:23.285Z,4.90
2019-05-12T15:31:56.838Z,5.47
2019-05-12T15:34:27.034Z,5.45
2019-05-12T15:37:00.338Z,5.17
2019-05-12T15:39:33.586Z,3.67
2019-05-12T15:42:04.918Z,4.42
2019-05-12T15:44:43.224Z,4.20
2019-05-12T15:47:13.981Z,4.15
2019-05-12T15:49:46.297Z,4.10
2019-05-12T15:52:24.519Z,3.85
2019-05-12T15:55:00.272Z,7.67
2019-05-12T15:57:33.478Z,55.58
2019-05-12T16:00:19.767Z,24.45
2019-05-12T16:02:53.306Z,8.73
2019-05-12T16:05:26.353Z,5.15
2019-05-12T16:07:57.592Z,7.83
2019-05-12T16:10:29.073Z,10.08
2019-05-12T16:13:00.555Z,6.95
2019-05-12T16:15:36.550Z,6.62
2019-05-12T16:18:09.809Z,7.87
2019-05-12T16:20:41.031Z,7.95
2019-05-12T16:23:15.497Z,8.58
2019-05-12T16:25:45.522Z,8.40
2019-05-12T16:28:22.916Z,6.20
2019-05-12T16:30:50.058Z,8.23
2019-05-12T16:33:22.109Z,8.80
2019-05-12T16:35:54.608Z,7.40
2019-05-12T16:38:26.282Z,7.07
2019-05-12T16:40:57.735Z,7.00
2019-05-12T16:43:34.425Z,6.70
2019-05-12T16:46:04.334Z,8.08
2019-05-12T16:48:36.382Z,9.75
2019-05-12T16:51:07.929Z,10.03
2019-05-12T16:53:39.158Z,8.38
2019-05-12T16:56:10.442Z,8.65
2019-05-12T16:58:43.457Z,8.23
2019-05-12T17:01:19.575Z,8.80
2019-05-12T17:03:48.193Z,8.68
2019-05-12T17:06:20.550Z,11.65
2019-05-12T17:08:54.264Z,9.65
2019-05-12T17:11:30.718Z,14.00
2019-05-12T17:14:04.088Z,14.47
2019-05-12T17:16:41.555Z,15.78
2019-05-12T17:19:10.240Z,19.55
2019-05-12T17:21:38.936Z,17.12
2019-05-12T17:24:10.419Z,16.62
2019-05-12T17:26:43.859Z,15.15
2019-05-12T17:29:14.983Z,16.87
2019-05-12T17:31:46.310Z,17.65
2019-05-12T17:34:17.646Z,16.45
2019-05-12T17:36:50.090Z,18.20
2019-05-12T17:39:43.837Z,19.42
2019-05-12T17:42:21.487Z,17.92
2019-05-12T17:44:48.677Z,19.05
2019-05-12T17:47:24.166Z,19.35
2019-05-12T17:49:53.925Z,21.68
2019-05-12T17:52:25.367Z,22.05
2019-05-12T17:55:04.579Z,21.85
2019-05-12T17:57:29.965Z,24.63
2019-05-12T18:00:06.167Z,30.30
2019-05-12T18:02:34.381Z,29.95
2019-05-12T18:05:12.271Z,28.80
2019-05-12T18:07:40.549Z,31.85
2019-05-12T18:10:16.699Z,29.52
2019-05-12T18:12:48.080Z,27.87
2019-05-12T18:15:23.394Z,24.60
2019-05-12T18:20:44.519Z,25.60
2019-05-12T18:23:19.879Z,27.35
2019-05-12T18:28:21.677Z,26.85
2019-05-12T18:30:53.894Z,27.65
2019-05-12T18:33:33.796Z,25.70
2019-05-12T18:36:04.746Z,28.95
2019-05-12T18:38:39.232Z,27.32
2019-05-12T18:41:13.879Z,29.72
2019-05-12T18:43:46.559Z,31.95
2019-05-12T18:46:18.085Z,30.80
2019-05-12T18:48:54.157Z,30.75
2019-05-12T18:51:23.786Z,34.05
2019-05-12T18:53:57.848Z,35.05
2019-05-12T18:56:29.858Z,38.85
2019-05-12T18:59:11.385Z,35.98
2019-05-12T19:01:37.720Z,35.25
2019-05-12T19:04:09.172Z,34.45
2019-05-12T19:06:40.546Z,35.17
2019-05-12T19:09:13.701Z,37.83
2019-05-12T19:11:46.715Z,37.70
2019-05-12T19:14:18.391Z,36.03
2019-05-12T19:16:49.820Z,42.03
2019-05-12T19:19:23.611Z,35.55
2019-05-12T19:22:04.772Z,45.75
2019-05-12T19:24:36.027Z,37.48
2019-05-12T19:27:04.554Z,33.60
2019-05-12T19:29:45.683Z,28.85
2019-05-12T19:32:13.738Z,31.23
2019-05-12T19:34:46.811Z,39.27
2019-05-12T19:37:19.461Z,38.78
2019-05-12T19:43:08.234Z,35.00
2019-05-12T19:45:39.697Z,30.75
2019-05-12T19:48:26.561Z,27.40
2019-05-12T19:53:26.754Z,30.08
2019-05-12T19:56:03.866Z,27.05
2019-05-12T19:58:45.825Z,30.72
2019-05-12T20:01:26.106Z,30.10
2019-05-12T20:03:56.171Z,28.35
2019-05-12T20:06:28.553Z,28.90
2019-05-12T20:09:06.706Z,28.95
2019-05-12T20:11:35.190Z,27.73
2019-05-12T20:14:09.998Z,27.00
2019-05-12T20:16:40.756Z,25.40
2019-05-12T20:19:13.585Z,26.80
2019-05-12T20:21:45.133Z,24.45
2019-05-12T20:24:17.653Z,27.52
2019-05-12T20:26:50.198Z,24.85
2019-05-12T20:29:24.576Z,23.25
2019-05-12T20:31:57.265Z,24.77
2019-05-12T20:34:28.535Z,23.05
2019-05-12T20:37:07.620Z,24.07
2019-05-12T20:39:33.151Z,23.12
2019-05-12T20:42:05.289Z,25.27
2019-05-12T20:44:36.845Z,27.45
2019-05-12T20:47:08.211Z,29.18
2019-05-12T20:49:42.961Z,26.02
2019-05-12T20:52:14.419Z,29.12
2019-05-12T20:54:49.218Z,30.88
2019-05-12T20:57:18.703Z,31.10
2019-05-12T20:59:50.130Z,31.05
2019-05-12T21:02:23.377Z,30.05
2019-05-12T21:05:00.916Z,39.33
2019-05-12T21:07:28.122Z,32.50
2019-05-12T21:09:59.557Z,34.25
2019-05-12T21:12:33.293Z,35.10
2019-05-12T21:15:16.295Z,35.90
2019-05-12T21:17:43.446Z,32.93
2019-05-12T21:20:16.596Z,35.65
2019-05-12T21:22:45.907Z,35.08
2019-05-12T21:25:17.397Z,32.28
2019-05-12T21:27:55.053Z,30.92
2019-05-12T21:30:24.495Z,33.63
2019-05-12T21:32:59.694Z,26.90
2019-05-12T21:35:33.020Z,21.10
2019-05-12T21:38:01.020Z,26.12
2019-05-12T21:40:36.104Z,23.52
2019-05-12T21:43:07.516Z,20.97
2019-05-12T21:45:38.995Z,18.85
2019-05-12T21:48:15.001Z,28.80
2019-05-12T21:50:44.315Z,22.65
2019-05-12T21:53:20.055Z,26.42
2019-05-12T21:55:48.959Z,25.17
2019-05-12T21:58:20.237Z,24.92
2019-05-12T22:01:03.911Z,19.42
2019-05-12T22:03:30.496Z,23.65
2019-05-12T22:06:06.450Z,22.67
2019-05-12T22:08:35.250Z,20.25
2019-05-12T22:11:11.477Z,27.95
2019-05-12T22:13:46.775Z,27.73
2019-05-12T22:18:47.794Z,25.50
2019-05-12T22:21:18.752Z,31.23
2019-05-12T22:23:51.623Z,28.32
2019-05-12T22:26:23.438Z,29.95
2019-05-12T22:28:54.755Z,29.10
2019-05-12T22:31:26.196Z,31.68
2019-05-12T22:33:57.517Z,29.18
2019-05-12T22:36:30.178Z,27.65
2019-05-12T22:39:03.100Z,29.90
2019-05-12T22:41:36.841Z,29.20
2019-05-12T22:44:07.755Z,34.70
2019-05-12T22:46:39.033Z,25.08
2019-05-12T22:49:15.918Z,32.08
2019-05-12T22:51:43.578Z,27.73
2019-05-12T22:54:16.564Z,24.07
2019-05-12T22:56:49.666Z,27.73
2019-05-12T22:59:21.309Z,31.27
2019-05-12T23:01:54.281Z,23.67
2019-05-12T23:04:34.555Z,25.80
2019-05-12T23:06:58.932Z,35.73
2019-05-12T23:09:30.400Z,27.13
2019-05-12T23:12:04.017Z,26.70
2019-05-12T23:14:34.720Z,24.40
2019-05-12T23:17:07.477Z,24.07
2019-05-12T23:19:42.996Z,24.82
2019-05-12T23:22:14.263Z,25.45
2019-05-12T23:24:45.306Z,22.80
2019-05-12T23:27:18.734Z,21.37
2019-05-12T23:29:49.748Z,20.30
2019-05-12T23:32:21.102Z,21.55
2019-05-12T23:34:57.293Z,18.75
2019-05-12T23:37:30.126Z,20.15
2019-05-12T23:39:58.625Z,22.85
2019-05-12T23:42:30.074Z,21.75
2019-05-12T23:45:03.467Z,21.00
2019-05-12T23:47:34.472Z,24.35
2019-05-12T23:50:09.964Z,23.57
2019-05-12T23:52:43.761Z,21.25
2019-05-12T23:55:14.533Z,22.67
2019-05-12T23:57:45.846Z,23.87
